Thunder radar more information blitzortung!


Radar de pluja more information rain snow radar


Visita la nostra xarxa de llocs de meteo:

Template documentation
and downloads

And another site



No particular awareness of the weather is required.    There are no Weather-warnings

Pagina Historial Weather Underground text

Diari Resum Novembre 26, 2017 Unitats:  Imperial    Mètric   Tant
« Previous Dia
SegĂźent Dia »
Diari Setmana Mensual Anual Personalitzada
  Maxima: Minima: Media:
Temperatura: TemperatureC °F 3.8 °F 8.5 °F
Punt de rosada: DewpointC °F -5.9 °F -2.2 °F
Humitat: Humidity % 38 % 47 %
Wind Speed: WindSpeedKMH mph 0.0 mph 3.7 mph
RĂ fegues de vent: WindSpeedGustKMH mph - -
Vent:- - South
Pression baro: PressurehPa in 1022.9 in -
Precipitacions: 0.0 in    
Historical Graphs
 
 
Dades de taula per Novembre 26, 2017
Temps Temperatura Punt de rosada Pression baro Vent Wind Speed RĂ fegues de vent Humitat Rainfall Rate (Hourly)
TemperatureC °F DewpointC °F PressurehPa in Calm     Humidity % HourlyPrecipMM in
00:01 8.4 °F -1.4 °F 1023.9 in WSW 3.9 mph 3.9 mph 50 % 0.0 in
00:05 5.2 °F -3.9 °F 1026.0 in Calm   3.2 mph 52 % 0.0 in
00:06 8.3 °F -1.6 °F 1023.9 in SW 1.9 mph   50 % 0.0 in
00:11 8.1 °F -1.7 °F 1023.9 in Calm     50 % 0.0 in
00:15 4.9 °F -4.2 °F 1026.0 in East 1.6 mph 3.2 mph 52 % 0.0 in
00:16 8.0 °F -1.8 °F 1022.9 in Calm     50 % 0.0 in
00:25 4.8 °F -4.2 °F 1026.0 in Calm   3.2 mph 52 % 0.0 in
00:35 4.7 °F -4.1 °F 1026.0 in SW 1.6 mph 3.2 mph 53 % 0.0 in
00:45 4.6 °F -4.2 °F 1026.0 in WSW 1.6 mph 3.2 mph 53 % 0.0 in
00:55 4.6 °F -4.2 °F 1026.0 in West 1.6 mph 3.2 mph 53 % 0.0 in
01:05 4.5 °F -4.3 °F 1026.0 in West 1.6 mph   53 % 0.0 in
01:15 4.3 °F -4.2 °F 1026.0 in Calm   1.6 mph 54 % 0.0 in
01:25 4.3 °F -4.2 °F 1026.0 in NNE 3.2 mph 4.8 mph 54 % 0.0 in
01:35 4.4 °F -4.1 °F 1026.0 in NE 3.2 mph 6.4 mph 54 % 0.0 in
01:45 4.4 °F -4.1 °F 1026.0 in NNE 3.2 mph 3.2 mph 54 % 0.0 in
01:55 4.5 °F -4.0 °F 1026.0 in NNW 3.2 mph 6.4 mph 54 % 0.0 in
02:05 4.7 °F -3.8 °F 1027.0 in NNE 8.0 mph 8.0 mph 54 % 0.0 in
02:15 4.7 °F -3.6 °F 1027.0 in NE 3.2 mph 8.0 mph 55 % 0.0 in
02:25 4.7 °F -3.6 °F 1027.0 in North 3.2 mph 4.8 mph 55 % 0.0 in
02:35 4.7 °F -3.6 °F 1027.0 in NNW 3.2 mph 4.8 mph 55 % 0.0 in
02:45 4.9 °F -3.4 °F 1027.0 in NNE 1.6 mph 4.8 mph 55 % 0.0 in
02:55 5.0 °F -3.3 °F 1028.0 in NNE 1.6 mph 3.2 mph 55 % 0.0 in
03:05 5.2 °F -3.1 °F 1028.0 in North 3.2 mph 3.2 mph 55 % 0.0 in
03:15 5.4 °F -2.9 °F 1028.0 in North 1.6 mph 4.8 mph 55 % 0.0 in
03:25 5.5 °F -2.8 °F 1028.0 in NNE 1.6 mph 6.4 mph 55 % 0.0 in
03:35 5.9 °F -2.4 °F 1028.0 in Calm   4.8 mph 55 % 0.0 in
03:45 6.2 °F -2.2 °F 1028.0 in Calm   3.2 mph 55 % 0.0 in
03:55 6.9 °F -1.6 °F 1028.0 in NNW 1.6 mph 3.2 mph 55 % 0.0 in
04:05 7.4 °F -1.3 °F 1028.0 in North 1.6 mph 3.2 mph 54 % 0.0 in
04:15 8.2 °F -0.6 °F 1028.0 in NNW 1.6 mph 3.2 mph 54 % 0.0 in
04:25 8.3 °F -0.7 °F 1028.0 in WSW 1.6 mph 4.8 mph 53 % 0.0 in
04:35 8.5 °F -0.6 °F 1028.0 in SW 1.6 mph 3.2 mph 53 % 0.0 in
04:45 8.5 °F -0.8 °F 1028.0 in SSW 3.2 mph 4.8 mph 52 % 0.0 in
04:55 8.6 °F -0.7 °F 1029.0 in East 3.2 mph 4.8 mph 52 % 0.0 in
05:05 9.0 °F -0.3 °F 1029.0 in ENE 1.6 mph 6.4 mph 52 % 0.0 in
05:15 9.2 °F -0.2 °F 1029.0 in NE 1.6 mph 4.8 mph 52 % 0.0 in
05:25 9.4 °F 0.0 °F 1030.0 in NE 4.8 mph 4.8 mph 52 % 0.0 in
05:35 9.2 °F -0.4 °F 1029.0 in NE 3.2 mph 4.8 mph 51 % 0.0 in
05:45 9.9 °F 0.2 °F 1029.0 in ENE 1.6 mph 3.2 mph 51 % 0.0 in
11:45 9.7 °F 0.1 °F 1030.0 in East 3.9 mph 3.9 mph 51 % 0.0 in
11:50 10.2 °F 0.8 °F 1030.0 in ESE 3.9 mph 3.9 mph 52 % 0.0 in
11:55 10.2 °F 0.5 °F 1030.0 in SE 3.9 mph 3.9 mph 51 % 0.0 in
12:00 10.4 °F 0.7 °F 1030.0 in East 3.7 mph 3.7 mph 51 % 0.0 in
12:05 10.9 °F 1.2 °F 1030.0 in NW 3.5 mph 3.5 mph 51 % 0.0 in
12:10 10.8 °F 1.1 °F 1030.0 in NNE 1.9 mph 1.9 mph 51 % 0.0 in
12:15 10.6 °F 0.9 °F 1030.0 in East 5.8 mph 5.8 mph 51 % 0.0 in
12:20 10.8 °F 1.1 °F 1030.0 in NNE 3.7 mph 3.7 mph 51 % 0.0 in
12:25 11.0 °F 1.2 °F 1030.0 in East 3.7 mph 3.7 mph 51 % 0.0 in
12:30 11.4 °F 1.6 °F 1029.0 in ENE 3.5 mph 3.5 mph 51 % 0.0 in
12:40 11.4 °F 1.6 °F 1029.0 in East 5.6 mph 5.6 mph 51 % 0.0 in
12:45 11.4 °F 1.3 °F 1029.0 in ESE 5.6 mph 5.6 mph 50 % 0.0 in
12:50 11.7 °F 1.9 °F 1029.0 in ESE 7.2 mph 7.2 mph 51 % 0.0 in
12:55 11.6 °F 1.5 °F 1029.0 in ESE 5.6 mph 5.6 mph 50 % 0.0 in
13:00 11.7 °F 1.6 °F 1028.0 in ENE 5.6 mph 5.6 mph 50 % 0.0 in
13:05 12.0 °F 1.9 °F 1028.0 in East 5.6 mph 5.6 mph 50 % 0.0 in
13:10 12.3 °F 2.4 °F 1028.0 in ESE 4.2 mph 4.2 mph 51 % 0.0 in
13:15 12.7 °F 2.6 °F 1028.0 in South 3.9 mph 3.9 mph 50 % 0.0 in
13:20 13.2 °F 3.3 °F 1028.0 in WSW 7.4 mph 7.4 mph 51 % 0.0 in
13:25 13.4 °F 3.4 °F 1028.0 in SSE 3.7 mph 3.7 mph 51 % 0.0 in
13:30 13.3 °F 3.4 °F 1028.0 in ENE 4.2 mph 4.2 mph 51 % 0.0 in
13:35 13.2 °F 3.0 °F 1028.0 in SW 5.6 mph 5.6 mph 50 % 0.0 in
13:40 13.2 °F 3.3 °F 1028.0 in SSW 7.4 mph 7.4 mph 51 % 0.0 in
13:45 13.2 °F 3.0 °F 1027.0 in SSE 3.7 mph 3.7 mph 50 % 0.0 in
13:50 13.3 °F 3.1 °F 1027.0 in SW 7.4 mph 7.4 mph 50 % 0.0 in
13:55 13.3 °F 2.8 °F 1027.0 in South 9.3 mph 9.3 mph 49 % 0.0 in
14:00 13.5 °F 3.0 °F 1027.0 in WSW 9.3 mph 9.3 mph 49 % 0.0 in
14:05 13.6 °F 2.8 °F 1027.0 in SW 13.0 mph 13.0 mph 48 % 0.0 in
14:10 13.6 °F 2.2 °F 1027.0 in SSW 7.4 mph 7.4 mph 46 % 0.0 in
14:15 13.5 °F 1.8 °F 1028.0 in WSW 7.4 mph 7.4 mph 45 % 0.0 in
14:20 13.8 °F 2.1 °F 1028.0 in WNW 13.0 mph 13.0 mph 45 % 0.0 in
14:21 13.9 °F 2.4 °F 1028.0 in WSW 7.4 mph 7.4 mph 46 % 0.0 in
14:26 14.0 °F 2.2 °F 1028.0 in SSW 3.7 mph 3.7 mph 45 % 0.0 in
14:31 14.1 °F 2.3 °F 1028.0 in West 5.6 mph 5.6 mph 45 % 0.0 in
14:36 14.2 °F 2.1 °F 1028.0 in WNW 5.6 mph 5.6 mph 44 % 0.0 in
14:41 14.2 °F 2.1 °F 1028.0 in SSW 7.4 mph 7.4 mph 44 % 0.0 in
14:46 14.2 °F 1.8 °F 1028.0 in WNW 7.4 mph 7.4 mph 43 % 0.0 in
14:51 13.7 °F 1.7 °F 1028.0 in ENE 5.0 mph 5.0 mph 44 % 0.0 in
14:56 13.6 °F 1.9 °F 1028.0 in West 5.6 mph 5.6 mph 45 % 0.0 in
15:01 13.6 °F 1.6 °F 1028.0 in WSW 3.9 mph 3.9 mph 44 % 0.0 in
15:06 13.5 °F 1.4 °F 1028.0 in NNE 3.7 mph 3.7 mph 44 % 0.0 in
15:11 13.8 °F 2.1 °F 1028.0 in NNW 3.7 mph 3.7 mph 45 % 0.0 in
15:16 14.0 °F 1.9 °F 1027.0 in WSW 7.4 mph 7.4 mph 44 % 0.0 in
15:21 14.3 °F 1.9 °F 1027.0 in SW 7.9 mph 7.9 mph 43 % 0.0 in
15:26 14.1 °F 1.4 °F 1027.0 in West 9.3 mph 9.3 mph 42 % 0.0 in
15:31 14.1 °F 1.1 °F 1028.0 in West 13.0 mph 13.0 mph 41 % 0.0 in
15:36 13.8 °F 0.1 °F 1028.0 in WNW 11.1 mph 11.1 mph 39 % 0.0 in
15:41 13.7 °F 0.0 °F 1028.0 in West 9.3 mph 9.3 mph 39 % 0.0 in
15:46 13.8 °F 0.1 °F 1028.0 in SW 9.3 mph 9.7 mph 39 % 0.0 in
15:51 13.6 °F -0.1 °F 1028.0 in West 13.0 mph 13.0 mph 39 % 0.0 in
15:56 13.5 °F -0.6 °F 1028.0 in West 16.7 mph 16.7 mph 38 % 0.0 in
16:01 13.5 °F -0.6 °F 1028.0 in SW 9.0 mph 9.0 mph 38 % 0.0 in
16:06 13.4 °F -0.7 °F 1028.0 in WSW 9.3 mph 9.3 mph 38 % 0.0 in
16:11 13.4 °F -0.7 °F 1028.0 in WNW 7.4 mph 7.4 mph 38 % 0.0 in
16:16 13.3 °F -0.4 °F 1028.0 in WNW 7.4 mph 7.4 mph 39 % 0.0 in
16:21 13.2 °F -0.4 °F 1028.0 in West 9.3 mph 9.3 mph 39 % 0.0 in
16:26 13.2 °F -0.4 °F 1028.0 in WSW 3.7 mph 3.9 mph 39 % 0.0 in
16:31 13.0 °F -0.7 °F 1029.0 in West 6.1 mph 6.1 mph 39 % 0.0 in
16:36 12.9 °F -0.7 °F 1029.0 in WSW 5.6 mph 5.6 mph 39 % 0.0 in
16:41 12.9 °F -0.7 °F 1029.0 in WSW 3.9 mph 3.9 mph 39 % 0.0 in
16:46 12.8 °F -0.8 °F 1028.0 in West 3.7 mph 3.7 mph 39 % 0.0 in
16:51 12.7 °F -0.9 °F 1028.0 in WSW 3.7 mph 3.7 mph 39 % 0.0 in
16:56 12.5 °F -1.1 °F 1028.0 in WSW 7.4 mph 7.4 mph 39 % 0.0 in
17:01 12.3 °F -1.3 °F 1028.0 in West 9.3 mph 9.3 mph 39 % 0.0 in
17:06 12.2 °F -1.4 °F 1028.0 in SW 9.3 mph 9.3 mph 39 % 0.0 in
17:11 11.8 °F -1.7 °F 1028.0 in WSW 5.6 mph 5.6 mph 39 % 0.0 in
17:16 11.6 °F -1.9 °F 1029.0 in WSW 5.6 mph 5.6 mph 39 % 0.0 in
17:21 11.3 °F -2.2 °F 1029.0 in SSW 6.1 mph 6.1 mph 39 % 0.0 in
17:26 11.1 °F -2.3 °F 1029.0 in WSW 3.9 mph 3.9 mph 39 % 0.0 in
17:31 11.0 °F -2.4 °F 1029.0 in WSW 1.9 mph 1.9 mph 39 % 0.0 in
17:36 10.9 °F -2.6 °F 1029.0 in NW 3.7 mph 3.7 mph 39 % 0.0 in
17:41 10.8 °F -2.6 °F 1029.0 in ENE 2.3 mph 2.3 mph 39 % 0.0 in
17:46 10.7 °F -2.7 °F 1029.0 in WSW 3.7 mph 3.7 mph 39 % 0.0 in
17:51 10.6 °F -2.8 °F 1029.0 in WSW 4.2 mph 4.2 mph 39 % 0.0 in
17:56 10.6 °F -2.8 °F 1029.0 in WSW 5.6 mph 5.6 mph 39 % 0.0 in
18:01 10.6 °F -2.8 °F 1029.0 in SW 1.9 mph   39 % 0.0 in
18:06 10.4 °F -3.0 °F 1029.0 in East 1.9 mph 2.3 mph 39 % 0.0 in
18:11 10.3 °F -3.1 °F 1029.0 in ENE 2.6 mph   39 % 0.0 in
18:16 10.1 °F -3.3 °F 1030.0 in ENE 3.2 mph 3.2 mph 39 % 0.0 in
18:21 10.0 °F -3.3 °F 1030.0 in NNE 3.7 mph 3.7 mph 39 % 0.0 in
18:26 9.8 °F -3.5 °F 1030.0 in NNE 1.9 mph   39 % 0.0 in
18:31 9.6 °F -3.7 °F 1029.0 in Calm     39 % 0.0 in
18:36 9.3 °F -3.9 °F 1029.0 in NE 1.9 mph 1.9 mph 39 % 0.0 in
18:41 9.3 °F -3.6 °F 1029.0 in WNW 3.7 mph 3.7 mph 40 % 0.0 in
18:45 4.0 °F -5.0 °F 1030.0 in SW 1.6 mph 3.2 mph 52 % 0.0 in
18:46 9.4 °F -3.6 °F 1029.0 in West 1.9 mph 1.9 mph 40 % 0.0 in
18:51 9.4 °F -3.6 °F 1029.0 in SW 3.7 mph 3.7 mph 40 % 0.0 in
18:55 4.2 °F -4.8 °F 1029.0 in North 1.6 mph 3.2 mph 52 % 0.0 in
18:56 9.4 °F -3.6 °F 1029.0 in West 3.7 mph 3.7 mph 40 % 0.0 in
19:01 9.3 °F -3.6 °F 1029.0 in West 1.9 mph   40 % 0.0 in
19:05 4.2 °F -4.8 °F 1029.0 in NNW 1.6 mph 1.6 mph 52 % 0.0 in
19:06 9.3 °F -3.6 °F 1029.0 in Calm     40 % 0.0 in
19:11 9.2 °F -3.7 °F 1029.0 in West 2.3 mph 2.3 mph 40 % 0.0 in
19:15 4.3 °F -4.4 °F 1029.0 in Calm   1.6 mph 53 % 0.0 in
19:16 9.2 °F -3.7 °F 1029.0 in West 3.2 mph   40 % 0.0 in
19:21 9.2 °F -3.7 °F 1029.0 in WSW 2.6 mph 2.6 mph 40 % 0.0 in
19:25 3.9 °F -5.1 °F 1029.0 in West 3.2 mph 4.8 mph 52 % 0.0 in
19:26 9.2 °F -3.7 °F 1029.0 in WNW 3.7 mph 3.7 mph 40 % 0.0 in
19:31 9.3 °F -3.6 °F 1029.0 in WSW 1.9 mph 1.9 mph 40 % 0.0 in
19:35 3.8 °F -4.9 °F 1029.0 in Calm   3.2 mph 53 % 0.0 in
19:36 9.3 °F -3.3 °F 1029.0 in WNW 1.9 mph 1.9 mph 41 % 0.0 in
19:41 9.3 °F -3.3 °F 1029.0 in ENE 3.9 mph 3.9 mph 41 % 0.0 in
19:45 4.1 °F -4.6 °F 1029.0 in Calm   3.2 mph 53 % 0.0 in
19:46 8.6 °F -3.9 °F 1029.0 in ENE 5.6 mph 5.6 mph 41 % 0.0 in
19:51 8.5 °F -4.0 °F 1029.0 in ESE 1.9 mph   41 % 0.0 in
19:55 4.2 °F -4.6 °F 1029.0 in Calm     53 % 0.0 in
19:56 8.3 °F -4.2 °F 1029.0 in Calm     41 % 0.0 in
20:01 8.2 °F -4.3 °F 1029.0 in WNW 3.7 mph 3.7 mph 41 % 0.0 in
20:05 4.3 °F -4.4 °F 1029.0 in Calm   1.6 mph 53 % 0.0 in
20:06 8.2 °F -4.3 °F 1029.0 in WNW 2.3 mph 2.3 mph 41 % 0.0 in
20:11 8.1 °F -4.4 °F 1029.0 in WNW 4.2 mph 4.2 mph 41 % 0.0 in
20:15 4.4 °F -4.1 °F 1029.0 in NNE 3.2 mph 3.2 mph 54 % 0.0 in
20:16 8.0 °F -4.5 °F 1028.0 in NW 3.2 mph 3.2 mph 41 % 0.0 in
20:21 8.0 °F -4.5 °F 1028.0 in NNE 3.7 mph 3.7 mph 41 % 0.0 in
20:25 4.2 °F -4.3 °F 1029.0 in Calm   1.6 mph 54 % 0.0 in
20:26 8.0 °F -4.5 °F 1028.0 in WNW 1.9 mph 1.9 mph 41 % 0.0 in
20:31 8.1 °F -4.4 °F 1028.0 in WNW 1.9 mph 2.3 mph 41 % 0.0 in
20:35 4.3 °F -4.2 °F 1030.0 in Calm   1.6 mph 54 % 0.0 in
20:36 8.3 °F -3.9 °F 1028.0 in NW 2.3 mph 2.3 mph 42 % 0.0 in
20:41 8.5 °F -3.7 °F 1028.0 in North 1.9 mph   42 % 0.0 in
20:45 4.4 °F -4.1 °F 1030.0 in WNW 1.6 mph 1.6 mph 54 % 0.0 in
20:46 8.2 °F -3.9 °F 1028.0 in WNW 1.9 mph 1.9 mph 42 % 0.0 in
20:51 7.9 °F -4.2 °F 1028.0 in NNE 3.7 mph 3.7 mph 42 % 0.0 in
20:55 4.4 °F -4.1 °F 1029.0 in NNW 1.6 mph 3.2 mph 54 % 0.0 in
20:56 7.8 °F -4.3 °F 1028.0 in ENE 3.7 mph 3.7 mph 42 % 0.0 in
21:01 7.7 °F -4.4 °F 1029.0 in NNE 5.6 mph 5.6 mph 42 % 0.0 in
21:05 4.2 °F -4.3 °F 1029.0 in Calm   1.6 mph 54 % 0.0 in
21:13 7.2 °F -4.6 °F 1029.0 in East 3.7 mph 3.7 mph 43 % 0.0 in
21:15 4.2 °F -4.3 °F 1029.0 in North 1.6 mph 3.2 mph 54 % 0.0 in
21:18 6.7 °F -5.0 °F 1029.0 in NE 3.7 mph 3.9 mph 43 % 0.0 in
21:23 6.5 °F -5.2 °F 1029.0 in NE 3.7 mph 3.7 mph 43 % 0.0 in
21:25 4.7 °F -3.8 °F 1029.0 in NE 3.2 mph 4.8 mph 54 % 0.0 in
21:28 6.3 °F -5.1 °F 1029.0 in NNE 1.9 mph 1.9 mph 44 % 0.0 in
21:33 6.2 °F -5.2 °F 1029.0 in WNW 3.7 mph   44 % 0.0 in
21:35 4.7 °F -3.8 °F 1029.0 in NE 3.2 mph 4.8 mph 54 % 0.0 in
21:38 6.2 °F -5.2 °F 1029.0 in NNE 3.7 mph 3.7 mph 44 % 0.0 in
21:43 6.2 °F -5.2 °F 1029.0 in NNE 1.4 mph   44 % 0.0 in
21:45 4.5 °F -4.0 °F 1029.0 in NE 4.8 mph 6.4 mph 54 % 0.0 in
21:48 6.2 °F -4.9 °F 1029.0 in North 3.7 mph 3.7 mph 45 % 0.0 in
21:53 6.2 °F -5.2 °F 1029.0 in NW 3.7 mph 3.7 mph 44 % 0.0 in
21:55 4.6 °F -3.7 °F 1029.0 in NE 3.2 mph 6.4 mph 55 % 0.0 in
21:58 6.2 °F -4.9 °F 1029.0 in WSW 1.9 mph   45 % 0.0 in
22:03 6.0 °F -5.1 °F 1029.0 in Calm     45 % 0.0 in
22:05 4.5 °F -3.8 °F 1029.0 in NNE 1.6 mph 6.4 mph 55 % 0.0 in
22:08 5.8 °F -4.9 °F 1029.0 in SSE 3.7 mph 3.7 mph 46 % 0.0 in
22:13 5.7 °F -5.1 °F 1029.0 in ENE 1.9 mph   46 % 0.0 in
22:15 4.5 °F -3.8 °F 1029.0 in NNE 3.2 mph 3.2 mph 55 % 0.0 in
22:18 5.2 °F -5.5 °F 1030.0 in NNE 3.7 mph 3.7 mph 46 % 0.0 in
22:23 5.1 °F -5.6 °F 1030.0 in SW 4.2 mph 4.2 mph 46 % 0.0 in
22:25 4.4 °F -3.9 °F 1029.0 in Calm   3.2 mph 55 % 0.0 in
22:28 4.8 °F -5.9 °F 1030.0 in WSW 3.7 mph 3.7 mph 46 % 0.0 in
22:33 4.8 °F -5.9 °F 1030.0 in West 3.9 mph 3.9 mph 46 % 0.0 in
22:35 4.3 °F -3.9 °F 1029.0 in NNE 1.6 mph 3.2 mph 55 % 0.0 in
22:38 4.8 °F -5.6 °F 1030.0 in SSW 1.9 mph 1.9 mph 47 % 0.0 in
22:43 5.0 °F -5.4 °F 1030.0 in WNW 3.7 mph 3.7 mph 47 % 0.0 in
22:45 4.5 °F -3.8 °F 1029.0 in North 3.2 mph 4.8 mph 55 % 0.0 in
22:48 5.0 °F -5.4 °F 1030.0 in Calm     47 % 0.0 in
22:53 5.1 °F -5.3 °F 1030.0 in WSW 3.7 mph 3.7 mph 47 % 0.0 in
22:55 4.5 °F -3.8 °F 1029.0 in NNE 3.2 mph 6.4 mph 55 % 0.0 in
22:58 5.1 °F -5.0 °F 1030.0 in NNE 1.9 mph   48 % 0.0 in
23:03 5.2 °F -4.9 °F 1030.0 in NNE 3.7 mph 3.7 mph 48 % 0.0 in
23:05 4.2 °F -4.1 °F 1029.0 in NE 4.8 mph 4.8 mph 55 % 0.0 in
23:08 5.5 °F -4.7 °F 1030.0 in SW 3.9 mph 3.9 mph 48 % 0.0 in
23:13 4.9 °F -5.2 °F 1030.0 in ENE 2.6 mph   48 % 0.0 in
23:15 3.8 °F -4.4 °F 1029.0 in NNE 1.6 mph 4.8 mph 55 % 0.0 in
23:18 4.8 °F -5.1 °F 1030.0 in ENE 1.9 mph   49 % 0.0 in
23:20 4.8 °F -5.1 °F 1030.0 in Calm     49 % 0.0 in
23:25 4.8 °F -5.1 °F 1030.0 in Calm     49 % 0.0 in
23:30 4.8 °F -4.8 °F 1030.0 in Calm     50 % 0.0 in
23:35 4.8 °F -4.8 °F 1030.0 in Calm     50 % 0.0 in
23:40 5.0 °F -4.6 °F 1030.0 in WNW 1.9 mph 1.9 mph 50 % 0.0 in
23:45 4.9 °F -4.7 °F 1030.0 in East 2.3 mph 2.3 mph 50 % 0.0 in
23:50 4.8 °F -4.8 °F 1030.0 in Calm     50 % 0.0 in
23:55 4.5 °F -5.1 °F 1030.0 in Calm     50 % 0.0 in
Meteo Sesrovires
Elogis d' Weather Underground - 1.5 mb

Guio original per  Jim McMurry - jmcmurry@mwt.net Adaptat per a la plantilla per  Wim van der Kuil - Leuven-Template.eu

Trobareu la nostra informacio del temps tambe a:

Weather Underground

AWEKAS